sensor_id;sensor_type;location;lat;lon;timestamp;P1;durP1;ratioP1;P2;durP2;ratioP2
56429;SDS011;42332;52.136;20.666;2022-07-06T00:01:29;19.35;;;10.98;;
56429;SDS011;42332;52.136;20.666;2022-07-06T00:03:55;16.95;;;10.43;;
56429;SDS011;42332;52.136;20.666;2022-07-06T00:06:21;15.93;;;11.07;;
56429;SDS011;42332;52.136;20.666;2022-07-06T00:08:47;20.35;;;9.70;;
56429;SDS011;42332;52.136;20.666;2022-07-06T00:11:12;14.93;;;9.63;;
56429;SDS011;42332;52.136;20.666;2022-07-06T00:13:37;19.73;;;9.98;;
56429;SDS011;42332;52.136;20.666;2022-07-06T00:16:04;14.32;;;10.02;;
56429;SDS011;42332;52.136;20.666;2022-07-06T00:18:29;13.73;;;9.70;;
56429;SDS011;42332;52.136;20.666;2022-07-06T00:20:55;18.80;;;8.57;;
56429;SDS011;42332;52.136;20.666;2022-07-06T00:23:21;16.65;;;9.48;;
56429;SDS011;42332;52.136;20.666;2022-07-06T00:25:46;13.55;;;8.45;;
56429;SDS011;42332;52.136;20.666;2022-07-06T00:28:13;13.43;;;8.90;;
56429;SDS011;42332;52.136;20.666;2022-07-06T00:30:39;14.60;;;9.75;;
56429;SDS011;42332;52.136;20.666;2022-07-06T00:33:04;14.02;;;8.43;;
56429;SDS011;42332;52.136;20.666;2022-07-06T00:35:30;21.83;;;9.55;;
56429;SDS011;42332;52.136;20.666;2022-07-06T00:37:55;17.63;;;9.38;;
56429;SDS011;42332;52.136;20.666;2022-07-06T00:40:21;17.15;;;9.43;;
56429;SDS011;42332;52.136;20.666;2022-07-06T00:42:47;11.85;;;8.60;;
56429;SDS011;42332;52.136;20.666;2022-07-06T00:45:13;17.23;;;9.07;;
56429;SDS011;42332;52.136;20.666;2022-07-06T00:47:40;14.48;;;9.35;;
56429;SDS011;42332;52.136;20.666;2022-07-06T00:50:10;13.38;;;9.38;;
56429;SDS011;42332;52.136;20.666;2022-07-06T00:52:39;14.45;;;8.82;;
56429;SDS011;42332;52.136;20.666;2022-07-06T00:55:11;16.95;;;9.35;;
56429;SDS011;42332;52.136;20.666;2022-07-06T00:57:38;14.30;;;8.82;;
56429;SDS011;42332;52.136;20.666;2022-07-06T01:00:04;14.13;;;9.07;;
56429;SDS011;42332;52.136;20.666;2022-07-06T01:02:31;14.25;;;8.77;;
56429;SDS011;42332;52.136;20.666;2022-07-06T01:04:57;14.90;;;8.45;;
56429;SDS011;42332;52.136;20.666;2022-07-06T01:07:23;11.88;;;8.10;;
56429;SDS011;42332;52.136;20.666;2022-07-06T01:09:49;11.63;;;8.63;;
56429;SDS011;42332;52.136;20.666;2022-07-06T01:12:14;16.95;;;9.23;;
56429;SDS011;42332;52.136;20.666;2022-07-06T01:14:40;19.08;;;8.90;;
56429;SDS011;42332;52.136;20.666;2022-07-06T01:17:06;19.48;;;9.57;;
56429;SDS011;42332;52.136;20.666;2022-07-06T01:19:32;13.73;;;8.88;;
56429;SDS011;42332;52.136;20.666;2022-07-06T01:21:58;14.60;;;9.00;;
56429;SDS011;42332;52.136;20.666;2022-07-06T01:24:23;17.00;;;9.70;;
56429;SDS011;42332;52.136;20.666;2022-07-06T01:26:48;14.45;;;8.93;;
56429;SDS011;42332;52.136;20.666;2022-07-06T01:29:14;15.55;;;9.32;;
56429;SDS011;42332;52.136;20.666;2022-07-06T01:31:46;16.48;;;9.95;;
56429;SDS011;42332;52.136;20.666;2022-07-06T01:34:16;19.63;;;9.93;;
56429;SDS011;42332;52.136;20.666;2022-07-06T01:36:42;22.08;;;10.00;;
56429;SDS011;42332;52.136;20.666;2022-07-06T01:39:08;24.92;;;9.73;;
56429;SDS011;42332;52.136;20.666;2022-07-06T01:41:34;15.40;;;9.65;;
56429;SDS011;42332;52.136;20.666;2022-07-06T01:44:00;14.85;;;9.70;;
56429;SDS011;42332;52.136;20.666;2022-07-06T01:46:26;13.07;;;8.80;;
56429;SDS011;42332;52.136;20.666;2022-07-06T01:48:52;13.07;;;9.05;;
56429;SDS011;42332;52.136;20.666;2022-07-06T01:51:17;15.07;;;9.38;;
56429;SDS011;42332;52.136;20.666;2022-07-06T01:53:43;13.05;;;8.65;;
56429;SDS011;42332;52.136;20.666;2022-07-06T01:56:09;19.65;;;9.88;;
56429;SDS011;42332;52.136;20.666;2022-07-06T01:58:35;19.33;;;9.82;;
56429;SDS011;42332;52.136;20.666;2022-07-06T02:01:04;15.75;;;10.10;;
56429;SDS011;42332;52.136;20.666;2022-07-06T02:03:34;16.75;;;10.02;;
56429;SDS011;42332;52.136;20.666;2022-07-06T02:06:00;15.82;;;9.52;;
56429;SDS011;42332;52.136;20.666;2022-07-06T02:08:25;14.20;;;10.20;;
56429;SDS011;42332;52.136;20.666;2022-07-06T02:10:51;18.20;;;9.95;;
56429;SDS011;42332;52.136;20.666;2022-07-06T02:13:16;14.25;;;10.13;;
56429;SDS011;42332;52.136;20.666;2022-07-06T02:15:41;15.60;;;9.80;;
56429;SDS011;42332;52.136;20.666;2022-07-06T02:18:07;20.13;;;10.25;;
56429;SDS011;42332;52.136;20.666;2022-07-06T02:20:32;14.73;;;9.70;;
56429;SDS011;42332;52.136;20.666;2022-07-06T02:22:58;17.08;;;11.02;;
56429;SDS011;42332;52.136;20.666;2022-07-06T02:25:23;17.80;;;10.02;;
56429;SDS011;42332;52.136;20.666;2022-07-06T02:27:49;17.00;;;11.32;;
56429;SDS011;42332;52.136;20.666;2022-07-06T02:30:14;15.93;;;10.52;;
56429;SDS011;42332;52.136;20.666;2022-07-06T02:32:40;22.13;;;11.27;;
56429;SDS011;42332;52.136;20.666;2022-07-06T02:35:05;20.52;;;11.07;;
56429;SDS011;42332;52.136;20.666;2022-07-06T02:37:31;15.95;;;11.40;;
56429;SDS011;42332;52.136;20.666;2022-07-06T02:39:56;15.25;;;10.18;;
56429;SDS011;42332;52.136;20.666;2022-07-06T02:42:21;18.80;;;10.95;;
56429;SDS011;42332;52.136;20.666;2022-07-06T02:44:47;14.05;;;10.10;;
56429;SDS011;42332;52.136;20.666;2022-07-06T02:47:12;18.30;;;10.15;;
56429;SDS011;42332;52.136;20.666;2022-07-06T02:49:37;17.98;;;9.73;;
56429;SDS011;42332;52.136;20.666;2022-07-06T02:52:03;14.52;;;9.73;;
56429;SDS011;42332;52.136;20.666;2022-07-06T02:54:28;16.52;;;9.10;;
56429;SDS011;42332;52.136;20.666;2022-07-06T02:56:54;17.83;;;10.38;;
56429;SDS011;42332;52.136;20.666;2022-07-06T02:59:19;18.42;;;10.32;;
56429;SDS011;42332;52.136;20.666;2022-07-06T03:01:45;16.90;;;10.75;;
56429;SDS011;42332;52.136;20.666;2022-07-06T03:04:10;14.93;;;10.70;;
56429;SDS011;42332;52.136;20.666;2022-07-06T03:06:36;16.60;;;10.10;;
56429;SDS011;42332;52.136;20.666;2022-07-06T03:09:02;14.80;;;10.57;;
56429;SDS011;42332;52.136;20.666;2022-07-06T03:11:27;16.55;;;10.55;;
56429;SDS011;42332;52.136;20.666;2022-07-06T03:13:53;18.77;;;11.05;;
56429;SDS011;42332;52.136;20.666;2022-07-06T03:16:18;17.25;;;10.35;;
56429;SDS011;42332;52.136;20.666;2022-07-06T03:18:43;18.10;;;10.05;;
56429;SDS011;42332;52.136;20.666;2022-07-06T03:21:09;18.30;;;9.98;;
56429;SDS011;42332;52.136;20.666;2022-07-06T03:23:34;16.65;;;9.93;;
56429;SDS011;42332;52.136;20.666;2022-07-06T03:26:00;15.55;;;10.30;;
56429;SDS011;42332;52.136;20.666;2022-07-06T03:28:25;14.32;;;10.23;;
56429;SDS011;42332;52.136;20.666;2022-07-06T03:30:51;16.73;;;11.73;;
56429;SDS011;42332;52.136;20.666;2022-07-06T03:33:16;16.88;;;11.18;;
56429;SDS011;42332;52.136;20.666;2022-07-06T03:35:41;22.60;;;11.07;;
56429;SDS011;42332;52.136;20.666;2022-07-06T03:38:07;26.40;;;11.10;;
56429;SDS011;42332;52.136;20.666;2022-07-06T03:40:33;31.60;;;11.18;;
56429;SDS011;42332;52.136;20.666;2022-07-06T03:42:58;19.63;;;10.77;;
56429;SDS011;42332;52.136;20.666;2022-07-06T03:45:23;17.55;;;10.25;;
56429;SDS011;42332;52.136;20.666;2022-07-06T03:47:49;16.77;;;10.43;;
56429;SDS011;42332;52.136;20.666;2022-07-06T03:50:15;15.70;;;10.07;;
56429;SDS011;42332;52.136;20.666;2022-07-06T03:52:40;16.00;;;10.38;;
56429;SDS011;42332;52.136;20.666;2022-07-06T03:55:09;16.02;;;8.35;;
56429;SDS011;42332;52.136;20.666;2022-07-06T03:57:36;18.45;;;9.45;;
56429;SDS011;42332;52.136;20.666;2022-07-06T04:00:02;17.45;;;9.85;;
56429;SDS011;42332;52.136;20.666;2022-07-06T04:02:28;21.65;;;10.55;;
56429;SDS011;42332;52.136;20.666;2022-07-06T04:04:54;16.88;;;9.98;;
56429;SDS011;42332;52.136;20.666;2022-07-06T04:07:19;31.27;;;10.30;;
56429;SDS011;42332;52.136;20.666;2022-07-06T04:09:45;21.10;;;10.85;;
56429;SDS011;42332;52.136;20.666;2022-07-06T04:12:10;20.38;;;11.48;;
56429;SDS011;42332;52.136;20.666;2022-07-06T04:14:35;17.20;;;10.73;;
56429;SDS011;42332;52.136;20.666;2022-07-06T04:17:01;17.30;;;11.25;;
56429;SDS011;42332;52.136;20.666;2022-07-06T04:19:46;23.92;;;10.63;;
56429;SDS011;42332;52.136;20.666;2022-07-06T04:22:12;20.42;;;10.88;;
56429;SDS011;42332;52.136;20.666;2022-07-06T04:24:37;19.75;;;10.88;;
56429;SDS011;42332;52.136;20.666;2022-07-06T04:27:02;28.27;;;12.00;;
56429;SDS011;42332;52.136;20.666;2022-07-06T04:29:28;19.38;;;11.13;;
56429;SDS011;42332;52.136;20.666;2022-07-06T04:31:53;22.17;;;12.77;;
56429;SDS011;42332;52.136;20.666;2022-07-06T04:34:19;17.98;;;11.40;;
56429;SDS011;42332;52.136;20.666;2022-07-06T04:36:44;16.30;;;11.48;;
56429;SDS011;42332;52.136;20.666;2022-07-06T04:39:09;22.85;;;11.98;;
56429;SDS011;42332;52.136;20.666;2022-07-06T04:41:35;22.73;;;11.40;;
56429;SDS011;42332;52.136;20.666;2022-07-06T04:44:00;17.92;;;11.50;;
56429;SDS011;42332;52.136;20.666;2022-07-06T04:46:26;17.55;;;11.85;;
56429;SDS011;42332;52.136;20.666;2022-07-06T04:48:51;20.02;;;12.10;;
56429;SDS011;42332;52.136;20.666;2022-07-06T04:51:16;23.30;;;12.02;;
56429;SDS011;42332;52.136;20.666;2022-07-06T04:53:42;22.45;;;12.43;;
56429;SDS011;42332;52.136;20.666;2022-07-06T04:56:07;18.45;;;12.00;;
56429;SDS011;42332;52.136;20.666;2022-07-06T04:58:33;19.67;;;12.05;;
56429;SDS011;42332;52.136;20.666;2022-07-06T05:00:58;20.83;;;12.55;;
56429;SDS011;42332;52.136;20.666;2022-07-06T05:03:23;26.77;;;13.27;;
56429;SDS011;42332;52.136;20.666;2022-07-06T05:05:49;23.38;;;13.07;;
56429;SDS011;42332;52.136;20.666;2022-07-06T05:08:14;23.90;;;14.35;;
56429;SDS011;42332;52.136;20.666;2022-07-06T05:10:40;26.38;;;14.38;;
56429;SDS011;42332;52.136;20.666;2022-07-06T05:13:05;25.52;;;14.18;;
56429;SDS011;42332;52.136;20.666;2022-07-06T05:15:30;28.20;;;15.57;;
56429;SDS011;42332;52.136;20.666;2022-07-06T05:17:56;22.65;;;13.95;;
56429;SDS011;42332;52.136;20.666;2022-07-06T05:20:21;23.05;;;13.95;;
56429;SDS011;42332;52.136;20.666;2022-07-06T05:22:47;21.55;;;13.00;;
56429;SDS011;42332;52.136;20.666;2022-07-06T05:25:12;22.73;;;13.63;;
56429;SDS011;42332;52.136;20.666;2022-07-06T05:27:37;19.92;;;12.75;;
56429;SDS011;42332;52.136;20.666;2022-07-06T05:30:03;19.70;;;13.10;;
56429;SDS011;42332;52.136;20.666;2022-07-06T05:32:29;21.15;;;12.68;;
56429;SDS011;42332;52.136;20.666;2022-07-06T05:34:54;22.50;;;12.75;;
56429;SDS011;42332;52.136;20.666;2022-07-06T05:37:19;17.80;;;10.73;;
56429;SDS011;42332;52.136;20.666;2022-07-06T05:39:45;14.93;;;9.10;;
56429;SDS011;42332;52.136;20.666;2022-07-06T05:42:12;14.95;;;8.85;;
56429;SDS011;42332;52.136;20.666;2022-07-06T05:44:37;13.90;;;8.25;;
56429;SDS011;42332;52.136;20.666;2022-07-06T05:47:03;13.07;;;6.95;;
56429;SDS011;42332;52.136;20.666;2022-07-06T05:49:47;14.82;;;6.93;;
56429;SDS011;42332;52.136;20.666;2022-07-06T05:52:31;13.75;;;7.00;;
56429;SDS011;42332;52.136;20.666;2022-07-06T05:54:56;17.45;;;7.38;;
56429;SDS011;42332;52.136;20.666;2022-07-06T05:57:22;14.75;;;6.60;;
56429;SDS011;42332;52.136;20.666;2022-07-06T05:59:47;14.07;;;6.38;;
56429;SDS011;42332;52.136;20.666;2022-07-06T06:02:12;11.60;;;5.53;;
56429;SDS011;42332;52.136;20.666;2022-07-06T06:04:38;14.30;;;6.50;;
56429;SDS011;42332;52.136;20.666;2022-07-06T06:07:03;10.75;;;6.15;;
56429;SDS011;42332;52.136;20.666;2022-07-06T06:09:29;13.35;;;5.85;;
56429;SDS011;42332;52.136;20.666;2022-07-06T06:11:54;17.30;;;7.00;;
56429;SDS011;42332;52.136;20.666;2022-07-06T06:14:19;13.40;;;7.00;;
56429;SDS011;42332;52.136;20.666;2022-07-06T06:16:45;15.85;;;7.60;;
56429;SDS011;42332;52.136;20.666;2022-07-06T06:19:10;12.82;;;7.32;;
56429;SDS011;42332;52.136;20.666;2022-07-06T06:21:35;13.27;;;6.95;;
56429;SDS011;42332;52.136;20.666;2022-07-06T06:24:01;13.50;;;6.57;;
56429;SDS011;42332;52.136;20.666;2022-07-06T06:26:26;20.08;;;6.55;;
56429;SDS011;42332;52.136;20.666;2022-07-06T06:28:52;10.52;;;5.20;;
56429;SDS011;42332;52.136;20.666;2022-07-06T06:31:17;13.88;;;5.80;;
56429;SDS011;42332;52.136;20.666;2022-07-06T06:33:42;8.88;;;5.15;;
56429;SDS011;42332;52.136;20.666;2022-07-06T06:36:08;13.73;;;4.93;;
56429;SDS011;42332;52.136;20.666;2022-07-06T06:38:33;8.43;;;4.35;;
56429;SDS011;42332;52.136;20.666;2022-07-06T06:40:59;14.95;;;6.07;;
56429;SDS011;42332;52.136;20.666;2022-07-06T06:43:26;7.95;;;4.07;;
56429;SDS011;42332;52.136;20.666;2022-07-06T06:45:52;7.88;;;4.20;;
56429;SDS011;42332;52.136;20.666;2022-07-06T06:48:17;6.32;;;3.42;;
56429;SDS011;42332;52.136;20.666;2022-07-06T06:50:44;6.53;;;3.80;;
56429;SDS011;42332;52.136;20.666;2022-07-06T06:53:10;8.75;;;3.80;;
56429;SDS011;42332;52.136;20.666;2022-07-06T06:55:35;8.30;;;3.70;;
56429;SDS011;42332;52.136;20.666;2022-07-06T06:58:01;8.30;;;3.60;;
56429;SDS011;42332;52.136;20.666;2022-07-06T07:00:26;11.48;;;3.60;;
56429;SDS011;42332;52.136;20.666;2022-07-06T07:02:51;11.25;;;3.17;;
56429;SDS011;42332;52.136;20.666;2022-07-06T07:05:17;8.02;;;2.47;;
56429;SDS011;42332;52.136;20.666;2022-07-06T07:07:42;7.13;;;2.70;;
56429;SDS011;42332;52.136;20.666;2022-07-06T07:10:08;6.55;;;2.25;;
56429;SDS011;42332;52.136;20.666;2022-07-06T07:12:34;8.38;;;2.60;;
56429;SDS011;42332;52.136;20.666;2022-07-06T07:14:59;13.73;;;3.05;;
56429;SDS011;42332;52.136;20.666;2022-07-06T07:17:25;6.35;;;2.47;;
56429;SDS011;42332;52.136;20.666;2022-07-06T07:19:51;5.00;;;2.10;;
56429;SDS011;42332;52.136;20.666;2022-07-06T07:22:16;8.23;;;2.83;;
56429;SDS011;42332;52.136;20.666;2022-07-06T07:24:41;6.20;;;2.20;;
56429;SDS011;42332;52.136;20.666;2022-07-06T07:27:07;3.20;;;1.58;;
56429;SDS011;42332;52.136;20.666;2022-07-06T07:29:32;7.03;;;2.17;;
56429;SDS011;42332;52.136;20.666;2022-07-06T07:31:58;4.20;;;1.70;;
56429;SDS011;42332;52.136;20.666;2022-07-06T07:34:23;6.60;;;2.10;;
56429;SDS011;42332;52.136;20.666;2022-07-06T07:36:49;4.82;;;1.80;;
56429;SDS011;42332;52.136;20.666;2022-07-06T07:39:14;7.75;;;1.77;;
56429;SDS011;42332;52.136;20.666;2022-07-06T07:41:40;5.95;;;1.98;;
56429;SDS011;42332;52.136;20.666;2022-07-06T07:44:05;3.42;;;1.50;;
56429;SDS011;42332;52.136;20.666;2022-07-06T07:46:31;10.38;;;2.10;;
56429;SDS011;42332;52.136;20.666;2022-07-06T07:48:56;8.65;;;2.03;;
56429;SDS011;42332;52.136;20.666;2022-07-06T07:51:21;5.13;;;1.27;;
56429;SDS011;42332;52.136;20.666;2022-07-06T07:53:47;5.38;;;1.50;;
56429;SDS011;42332;52.136;20.666;2022-07-06T07:56:12;3.97;;;1.55;;
56429;SDS011;42332;52.136;20.666;2022-07-06T07:58:38;3.47;;;1.50;;
56429;SDS011;42332;52.136;20.666;2022-07-06T08:01:03;4.10;;;1.60;;
56429;SDS011;42332;52.136;20.666;2022-07-06T08:03:29;3.90;;;1.45;;
56429;SDS011;42332;52.136;20.666;2022-07-06T08:05:56;3.97;;;1.60;;
56429;SDS011;42332;52.136;20.666;2022-07-06T08:08:21;6.82;;;1.40;;
56429;SDS011;42332;52.136;20.666;2022-07-06T08:10:46;4.72;;;1.42;;
56429;SDS011;42332;52.136;20.666;2022-07-06T08:13:12;5.25;;;1.58;;
56429;SDS011;42332;52.136;20.666;2022-07-06T08:15:39;4.63;;;1.50;;
56429;SDS011;42332;52.136;20.666;2022-07-06T08:18:05;2.70;;;1.30;;
56429;SDS011;42332;52.136;20.666;2022-07-06T08:20:30;4.00;;;1.30;;
56429;SDS011;42332;52.136;20.666;2022-07-06T08:22:55;6.38;;;1.60;;
56429;SDS011;42332;52.136;20.666;2022-07-06T08:25:21;3.03;;;1.17;;
56429;SDS011;42332;52.136;20.666;2022-07-06T08:27:46;4.95;;;1.30;;
56429;SDS011;42332;52.136;20.666;2022-07-06T08:30:12;8.10;;;1.88;;
56429;SDS011;42332;52.136;20.666;2022-07-06T08:32:41;3.97;;;1.70;;
56429;SDS011;42332;52.136;20.666;2022-07-06T08:35:07;3.80;;;1.40;;
56429;SDS011;42332;52.136;20.666;2022-07-06T08:37:33;3.53;;;1.58;;
56429;SDS011;42332;52.136;20.666;2022-07-06T08:39:58;6.65;;;1.65;;
56429;SDS011;42332;52.136;20.666;2022-07-06T08:42:25;3.88;;;1.60;;
56429;SDS011;42332;52.136;20.666;2022-07-06T08:44:56;4.10;;;1.20;;
56429;SDS011;42332;52.136;20.666;2022-07-06T08:47:28;6.07;;;1.48;;
56429;SDS011;42332;52.136;20.666;2022-07-06T08:49:54;3.55;;;1.30;;
56429;SDS011;42332;52.136;20.666;2022-07-06T08:52:21;4.05;;;1.10;;
56429;SDS011;42332;52.136;20.666;2022-07-06T08:54:50;3.72;;;1.30;;
56429;SDS011;42332;52.136;20.666;2022-07-06T08:57:16;3.75;;;0.95;;
56429;SDS011;42332;52.136;20.666;2022-07-06T08:59:42;3.83;;;1.20;;
56429;SDS011;42332;52.136;20.666;2022-07-06T09:02:09;2.25;;;1.05;;
56429;SDS011;42332;52.136;20.666;2022-07-06T09:04:35;3.90;;;1.35;;
56429;SDS011;42332;52.136;20.666;2022-07-06T09:07:01;3.17;;;1.40;;
56429;SDS011;42332;52.136;20.666;2022-07-06T09:09:28;3.47;;;1.23;;
56429;SDS011;42332;52.136;20.666;2022-07-06T09:11:53;1.40;;;0.88;;
56429;SDS011;42332;52.136;20.666;2022-07-06T09:14:19;2.70;;;0.95;;
56429;SDS011;42332;52.136;20.666;2022-07-06T09:16:44;2.38;;;0.90;;
56429;SDS011;42332;52.136;20.666;2022-07-06T09:19:11;2.00;;;0.90;;
56429;SDS011;42332;52.136;20.666;2022-07-06T09:21:36;3.08;;;0.98;;
56429;SDS011;42332;52.136;20.666;2022-07-06T09:24:03;4.32;;;0.80;;
56429;SDS011;42332;52.136;20.666;2022-07-06T09:26:32;3.45;;;0.90;;
56429;SDS011;42332;52.136;20.666;2022-07-06T09:28:59;3.50;;;1.27;;
56429;SDS011;42332;52.136;20.666;2022-07-06T09:31:24;7.72;;;1.73;;
56429;SDS011;42332;52.136;20.666;2022-07-06T09:33:57;6.05;;;0.80;;
56429;SDS011;42332;52.136;20.666;2022-07-06T09:36:44;1.88;;;0.80;;
56429;SDS011;42332;52.136;20.666;2022-07-06T09:41:45;2.97;;;0.90;;
56429;SDS011;42332;52.136;20.666;2022-07-06T09:44:11;3.33;;;0.70;;
56429;SDS011;42332;52.136;20.666;2022-07-06T09:46:37;2.50;;;0.70;;
56429;SDS011;42332;52.136;20.666;2022-07-06T09:49:06;2.88;;;0.80;;
56429;SDS011;42332;52.136;20.666;2022-07-06T09:51:35;3.03;;;0.88;;
56429;SDS011;42332;52.136;20.666;2022-07-06T09:54:03;1.77;;;0.68;;
56429;SDS011;42332;52.136;20.666;2022-07-06T09:56:41;2.63;;;0.75;;
56429;SDS011;42332;52.136;20.666;2022-07-06T09:59:08;3.88;;;0.70;;
56429;SDS011;42332;52.136;20.666;2022-07-06T10:01:37;1.60;;;0.60;;
56429;SDS011;42332;52.136;20.666;2022-07-06T10:04:03;2.55;;;0.80;;
56429;SDS011;42332;52.136;20.666;2022-07-06T10:06:30;1.55;;;0.50;;
56429;SDS011;42332;52.136;20.666;2022-07-06T10:08:57;4.63;;;0.80;;
56429;SDS011;42332;52.136;20.666;2022-07-06T10:11:23;3.42;;;0.70;;
56429;SDS011;42332;52.136;20.666;2022-07-06T10:13:49;3.72;;;0.70;;
56429;SDS011;42332;52.136;20.666;2022-07-06T10:16:15;3.70;;;0.73;;
56429;SDS011;42332;52.136;20.666;2022-07-06T10:18:41;1.73;;;0.60;;
56429;SDS011;42332;52.136;20.666;2022-07-06T10:21:07;1.75;;;0.60;;
56429;SDS011;42332;52.136;20.666;2022-07-06T10:23:33;4.65;;;0.80;;
56429;SDS011;42332;52.136;20.666;2022-07-06T10:25:59;3.75;;;0.68;;
56429;SDS011;42332;52.136;20.666;2022-07-06T10:28:25;2.33;;;0.70;;
56429;SDS011;42332;52.136;20.666;2022-07-06T10:30:51;2.97;;;0.93;;
56429;SDS011;42332;52.136;20.666;2022-07-06T10:33:17;6.22;;;0.73;;
56429;SDS011;42332;52.136;20.666;2022-07-06T10:35:42;3.33;;;0.70;;
56429;SDS011;42332;52.136;20.666;2022-07-06T10:38:09;3.83;;;0.70;;
56429;SDS011;42332;52.136;20.666;2022-07-06T10:40:38;1.75;;;0.50;;
56429;SDS011;42332;52.136;20.666;2022-07-06T10:43:22;4.30;;;0.70;;
56429;SDS011;42332;52.136;20.666;2022-07-06T10:45:50;5.10;;;0.70;;
56429;SDS011;42332;52.136;20.666;2022-07-06T10:48:19;1.20;;;0.80;;
56429;SDS011;42332;52.136;20.666;2022-07-06T10:53:25;3.05;;;0.60;;
56429;SDS011;42332;52.136;20.666;2022-07-06T10:55:52;1.45;;;0.45;;
56429;SDS011;42332;52.136;20.666;2022-07-06T11:01:05;4.53;;;0.63;;
56429;SDS011;42332;52.136;20.666;2022-07-06T11:06:06;0.75;;;0.50;;
56429;SDS011;42332;52.136;20.666;2022-07-06T11:08:42;5.05;;;0.70;;
56429;SDS011;42332;52.136;20.666;2022-07-06T11:13:51;7.40;;;0.80;;
56429;SDS011;42332;52.136;20.666;2022-07-06T11:19:08;2.08;;;0.70;;
56429;SDS011;42332;52.136;20.666;2022-07-06T11:24:15;3.17;;;0.88;;
56429;SDS011;42332;52.136;20.666;2022-07-06T11:26:43;2.30;;;0.70;;
56429;SDS011;42332;52.136;20.666;2022-07-06T11:29:09;3.78;;;0.70;;
56429;SDS011;42332;52.136;20.666;2022-07-06T11:31:39;4.03;;;0.85;;
56429;SDS011;42332;52.136;20.666;2022-07-06T11:34:07;2.00;;;0.70;;
56429;SDS011;42332;52.136;20.666;2022-07-06T11:36:33;3.83;;;0.70;;
56429;SDS011;42332;52.136;20.666;2022-07-06T11:38:59;4.07;;;0.80;;
56429;SDS011;42332;52.136;20.666;2022-07-06T11:41:24;5.22;;;0.85;;
56429;SDS011;42332;52.136;20.666;2022-07-06T11:43:50;1.17;;;0.57;;
56429;SDS011;42332;52.136;20.666;2022-07-06T11:46:22;1.30;;;0.55;;
56429;SDS011;42332;52.136;20.666;2022-07-06T11:49:01;5.50;;;0.77;;
56429;SDS011;42332;52.136;20.666;2022-07-06T11:51:34;3.75;;;0.70;;
56429;SDS011;42332;52.136;20.666;2022-07-06T11:54:03;3.10;;;0.75;;
56429;SDS011;42332;52.136;20.666;2022-07-06T11:56:33;2.15;;;0.70;;
56429;SDS011;42332;52.136;20.666;2022-07-06T11:58:59;1.60;;;0.60;;
56429;SDS011;42332;52.136;20.666;2022-07-06T12:01:28;5.18;;;0.70;;
56429;SDS011;42332;52.136;20.666;2022-07-06T12:03:59;4.63;;;0.65;;
56429;SDS011;42332;52.136;20.666;2022-07-06T12:06:28;1.50;;;0.60;;
56429;SDS011;42332;52.136;20.666;2022-07-06T12:08:56;5.63;;;0.82;;
56429;SDS011;42332;52.136;20.666;2022-07-06T12:11:26;2.15;;;0.80;;
56429;SDS011;42332;52.136;20.666;2022-07-06T12:13:54;2.40;;;0.60;;
56429;SDS011;42332;52.136;20.666;2022-07-06T12:16:21;3.10;;;0.80;;
56429;SDS011;42332;52.136;20.666;2022-07-06T12:18:49;4.15;;;0.70;;
56429;SDS011;42332;52.136;20.666;2022-07-06T12:21:16;2.55;;;0.77;;
56429;SDS011;42332;52.136;20.666;2022-07-06T12:23:44;2.38;;;0.77;;
56429;SDS011;42332;52.136;20.666;2022-07-06T12:26:11;5.25;;;0.75;;
56429;SDS011;42332;52.136;20.666;2022-07-06T12:28:38;1.08;;;0.52;;
56429;SDS011;42332;52.136;20.666;2022-07-06T12:31:04;2.63;;;0.60;;
56429;SDS011;42332;52.136;20.666;2022-07-06T12:33:29;5.18;;;0.63;;
56429;SDS011;42332;52.136;20.666;2022-07-06T12:35:55;2.00;;;0.63;;
56429;SDS011;42332;52.136;20.666;2022-07-06T12:38:34;0.95;;;0.68;;
56429;SDS011;42332;52.136;20.666;2022-07-06T12:40:59;2.60;;;0.70;;
56429;SDS011;42332;52.136;20.666;2022-07-06T12:43:34;3.53;;;0.80;;
56429;SDS011;42332;52.136;20.666;2022-07-06T12:48:55;2.63;;;0.90;;
56429;SDS011;42332;52.136;20.666;2022-07-06T12:51:20;9.70;;;1.00;;
56429;SDS011;42332;52.136;20.666;2022-07-06T12:53:46;1.70;;;0.63;;
56429;SDS011;42332;52.136;20.666;2022-07-06T12:56:12;3.58;;;1.08;;
56429;SDS011;42332;52.136;20.666;2022-07-06T12:58:38;3.05;;;0.88;;
56429;SDS011;42332;52.136;20.666;2022-07-06T13:01:04;2.47;;;0.90;;
56429;SDS011;42332;52.136;20.666;2022-07-06T13:03:39;5.82;;;0.80;;
56429;SDS011;42332;52.136;20.666;2022-07-06T13:06:05;3.55;;;0.50;;
56429;SDS011;42332;52.136;20.666;2022-07-06T13:08:30;4.75;;;0.80;;
56429;SDS011;42332;52.136;20.666;2022-07-06T13:10:56;5.10;;;1.02;;
56429;SDS011;42332;52.136;20.666;2022-07-06T13:13:21;3.70;;;0.82;;
56429;SDS011;42332;52.136;20.666;2022-07-06T13:15:47;2.08;;;0.80;;
56429;SDS011;42332;52.136;20.666;2022-07-06T13:18:13;4.32;;;0.70;;
56429;SDS011;42332;52.136;20.666;2022-07-06T13:20:38;1.45;;;0.70;;
56429;SDS011;42332;52.136;20.666;2022-07-06T13:23:04;8.57;;;1.00;;
56429;SDS011;42332;52.136;20.666;2022-07-06T13:25:29;2.35;;;0.80;;
56429;SDS011;42332;52.136;20.666;2022-07-06T13:27:54;3.22;;;1.27;;
56429;SDS011;42332;52.136;20.666;2022-07-06T13:30:20;3.45;;;1.30;;
56429;SDS011;42332;52.136;20.666;2022-07-06T13:32:45;5.25;;;1.08;;
56429;SDS011;42332;52.136;20.666;2022-07-06T13:35:12;4.40;;;1.00;;
56429;SDS011;42332;52.136;20.666;2022-07-06T13:37:37;6.60;;;0.77;;
56429;SDS011;42332;52.136;20.666;2022-07-06T13:40:02;4.07;;;0.93;;
56429;SDS011;42332;52.136;20.666;2022-07-06T13:42:28;1.77;;;0.80;;
56429;SDS011;42332;52.136;20.666;2022-07-06T13:44:54;4.47;;;1.08;;
56429;SDS011;42332;52.136;20.666;2022-07-06T13:47:19;3.00;;;1.00;;
56429;SDS011;42332;52.136;20.666;2022-07-06T13:49:44;5.65;;;1.00;;
56429;SDS011;42332;52.136;20.666;2022-07-06T13:52:12;2.97;;;0.80;;
56429;SDS011;42332;52.136;20.666;2022-07-06T13:54:38;2.28;;;0.70;;
56429;SDS011;42332;52.136;20.666;2022-07-06T13:57:04;2.55;;;0.98;;
56429;SDS011;42332;52.136;20.666;2022-07-06T13:59:30;4.32;;;0.88;;
56429;SDS011;42332;52.136;20.666;2022-07-06T14:01:56;8.30;;;0.80;;
56429;SDS011;42332;52.136;20.666;2022-07-06T14:04:21;3.42;;;0.73;;
56429;SDS011;42332;52.136;20.666;2022-07-06T14:06:47;1.67;;;0.70;;
56429;SDS011;42332;52.136;20.666;2022-07-06T14:09:12;2.95;;;0.70;;
56429;SDS011;42332;52.136;20.666;2022-07-06T14:11:38;2.80;;;0.80;;
56429;SDS011;42332;52.136;20.666;2022-07-06T14:14:03;4.97;;;0.85;;
56429;SDS011;42332;52.136;20.666;2022-07-06T14:16:32;2.03;;;0.90;;
56429;SDS011;42332;52.136;20.666;2022-07-06T14:18:59;8.15;;;1.33;;
56429;SDS011;42332;52.136;20.666;2022-07-06T14:21:25;2.88;;;1.10;;
56429;SDS011;42332;52.136;20.666;2022-07-06T14:23:50;3.40;;;1.45;;
56429;SDS011;42332;52.136;20.666;2022-07-06T14:26:16;2.53;;;1.08;;
56429;SDS011;42332;52.136;20.666;2022-07-06T14:28:41;13.75;;;1.25;;
56429;SDS011;42332;52.136;20.666;2022-07-06T14:31:06;4.95;;;1.38;;
56429;SDS011;42332;52.136;20.666;2022-07-06T14:33:32;6.60;;;1.27;;
56429;SDS011;42332;52.136;20.666;2022-07-06T14:35:57;6.55;;;1.23;;
56429;SDS011;42332;52.136;20.666;2022-07-06T14:38:23;5.25;;;1.20;;
56429;SDS011;42332;52.136;20.666;2022-07-06T14:40:49;6.10;;;2.33;;
56429;SDS011;42332;52.136;20.666;2022-07-06T14:43:15;3.42;;;1.08;;